AUA730 LQSA-LOWW
Flight info
| Callsign | AUA730 |
|---|---|
| Flight time | 0h 53m |
| Altitude | 36000 |
| Route | BOSN4W BOSNA DCT IRDIV DCT NOVLO DCT ZAG DCT OBUTI OBUTI2W |
| Aircraft | A320/M-SDE3FGHIRWY/LB1 |
Departure
| Time | 2026-05-04 18:14 |
|---|---|
| Airport | Sarajevo International Airport (LQSA) |
Arrival
| Time | 2026-05-04 19:08 |
|---|---|
| Airport | Vienna International Airport (LOWW) |
| Time | Latitude | Longitude | Altitude | Speed | Heading |
|---|---|---|---|---|---|
| 2026-05-04 17:45 | 43.82521 | 18.33697 | 1668 ft | 0 kts | 27° |
| 2026-05-04 18:05 | 43.82517 | 18.33694 | 1668 ft | 2 kts | 27° |
| 2026-05-04 18:05 | 43.82500 | 18.33681 | 1677 ft | 3 kts | 33° |
| 2026-05-04 18:05 | 43.82484 | 18.33665 | 1682 ft | 3 kts | 43° |
| 2026-05-04 18:06 | 43.82463 | 18.33621 | 1677 ft | 3 kts | 101° |
| 2026-05-04 18:06 | 43.82465 | 18.33612 | 1682 ft | 0 kts | 117° |
| 2026-05-04 18:09 | 43.82413 | 18.33747 | 1675 ft | 13 kts | 118° |
| 2026-05-04 18:10 | 43.82363 | 18.33879 | 1675 ft | 17 kts | 117° |
| 2026-05-04 18:10 | 43.82307 | 18.34031 | 1674 ft | 19 kts | 117° |
| 2026-05-04 18:10 | 43.82252 | 18.34179 | 1676 ft | 18 kts | 117° |
| 2026-05-04 18:10 | 43.82194 | 18.34333 | 1676 ft | 18 kts | 117° |
| 2026-05-04 18:11 | 43.82135 | 18.34492 | 1678 ft | 19 kts | 117° |
| 2026-05-04 18:11 | 43.82069 | 18.34614 | 1668 ft | 13 kts | 151° |
| 2026-05-04 18:11 | 43.82028 | 18.34627 | 1671 ft | 3 kts | 176° |
| 2026-05-04 18:11 | 43.82005 | 18.34624 | 1668 ft | 6 kts | 192° |
| 2026-05-04 18:12 | 43.81942 | 18.34582 | 1670 ft | 9 kts | 214° |
| 2026-05-04 18:12 | 43.81945 | 18.34521 | 1670 ft | 6 kts | 298° |
| 2026-05-04 18:12 | 43.81947 | 18.34514 | 1672 ft | 0 kts | 297° |
| 2026-05-04 18:13 | 43.82087 | 18.34140 | 1678 ft | 82 kts | 297° |
| 2026-05-04 18:14 | 43.82460 | 18.33146 | 1668 ft | 145 kts | 297° |
| 2026-05-04 18:14 | 43.82975 | 18.31750 | 1952 ft | 168 kts | 296° |
| 2026-05-04 18:14 | 43.83656 | 18.30441 | 2591 ft | 171 kts | 327° |
| 2026-05-04 18:15 | 43.85960 | 18.30480 | 3763 ft | 183 kts | 16° |
| 2026-05-04 18:15 | 43.88695 | 18.30832 | 4413 ft | 221 kts | 344° |
| 2026-05-04 18:15 | 43.90248 | 18.30220 | 4695 ft | 245 kts | 343° |
| 2026-05-04 18:16 | 43.91974 | 18.29552 | 5105 ft | 267 kts | 344° |
| 2026-05-04 18:16 | 43.93801 | 18.28870 | 5884 ft | 274 kts | 345° |
| 2026-05-04 18:16 | 43.95659 | 18.28195 | 6776 ft | 277 kts | 345° |
| 2026-05-04 18:17 | 43.99425 | 18.26843 | 8523 ft | 282 kts | 345° |
| 2026-05-04 18:17 | 44.01334 | 18.26155 | 9390 ft | 285 kts | 345° |
| 2026-05-04 18:17 | 44.05250 | 18.24517 | 10471 ft | 314 kts | 335° |
| 2026-05-04 18:18 | 44.07189 | 18.22920 | 10799 ft | 332 kts | 323° |
| 2026-05-04 18:18 | 44.08890 | 18.20692 | 11424 ft | 340 kts | 311° |
| 2026-05-04 18:18 | 44.10458 | 18.18198 | 12132 ft | 345 kts | 311° |
| 2026-05-04 18:18 | 44.12056 | 18.15671 | 12851 ft | 350 kts | 312° |
| 2026-05-04 18:19 | 44.15323 | 18.10532 | 14220 ft | 359 kts | 312° |
| 2026-05-04 18:19 | 44.16985 | 18.07918 | 14871 ft | 362 kts | 312° |
| 2026-05-04 18:19 | 44.18657 | 18.05281 | 15540 ft | 364 kts | 312° |
| 2026-05-04 18:20 | 44.20338 | 18.02626 | 16214 ft | 367 kts | 312° |
| 2026-05-04 18:20 | 44.22030 | 17.99945 | 16875 ft | 369 kts | 312° |
| 2026-05-04 18:20 | 44.23731 | 17.97246 | 17538 ft | 372 kts | 312° |
| 2026-05-04 18:20 | 44.25439 | 17.94526 | 18182 ft | 375 kts | 312° |
| 2026-05-04 18:21 | 44.27160 | 17.91781 | 18760 ft | 377 kts | 312° |
| 2026-05-04 18:21 | 44.28893 | 17.89016 | 19337 ft | 380 kts | 312° |
| 2026-05-04 18:21 | 44.30637 | 17.86235 | 19887 ft | 382 kts | 311° |
| 2026-05-04 18:21 | 44.32391 | 17.83433 | 20456 ft | 384 kts | 311° |
| 2026-05-04 18:22 | 44.34155 | 17.80611 | 21019 ft | 387 kts | 311° |
| 2026-05-04 18:22 | 44.35934 | 17.77778 | 21595 ft | 389 kts | 313° |
| 2026-05-04 18:22 | 44.37931 | 17.75208 | 22149 ft | 391 kts | 323° |
| 2026-05-04 18:22 | 44.40186 | 17.73063 | 22695 ft | 394 kts | 327° |
| 2026-05-04 18:23 | 44.42485 | 17.70954 | 23226 ft | 396 kts | 327° |
| 2026-05-04 18:23 | 44.44797 | 17.68830 | 23726 ft | 399 kts | 327° |
| 2026-05-04 18:23 | 44.47122 | 17.66688 | 24156 ft | 401 kts | 327° |
| 2026-05-04 18:23 | 44.49457 | 17.64527 | 24590 ft | 403 kts | 327° |
| 2026-05-04 18:24 | 44.51802 | 17.62350 | 25006 ft | 405 kts | 326° |
| 2026-05-04 18:24 | 44.54152 | 17.60160 | 25419 ft | 407 kts | 326° |
| 2026-05-04 18:24 | 44.56515 | 17.57958 | 25821 ft | 409 kts | 326° |
| 2026-05-04 18:24 | 44.58894 | 17.55747 | 26209 ft | 411 kts | 326° |
| 2026-05-04 18:25 | 44.61276 | 17.53531 | 26599 ft | 413 kts | 326° |
| 2026-05-04 18:25 | 44.63674 | 17.51293 | 26974 ft | 415 kts | 326° |
| 2026-05-04 18:25 | 44.66081 | 17.49045 | 27350 ft | 416 kts | 326° |
| 2026-05-04 18:25 | 44.68502 | 17.46786 | 27717 ft | 418 kts | 326° |
| 2026-05-04 18:26 | 44.70929 | 17.44523 | 28075 ft | 420 kts | 326° |
| 2026-05-04 18:26 | 44.73370 | 17.42244 | 28435 ft | 422 kts | 326° |
| 2026-05-04 18:26 | 44.75818 | 17.39950 | 28784 ft | 424 kts | 326° |
| 2026-05-04 18:26 | 44.78278 | 17.37639 | 29112 ft | 426 kts | 326° |
| 2026-05-04 18:27 | 44.80749 | 17.35315 | 29435 ft | 428 kts | 326° |
| 2026-05-04 18:27 | 44.83228 | 17.32982 | 29753 ft | 429 kts | 326° |
| 2026-05-04 18:27 | 44.85714 | 17.30640 | 30056 ft | 431 kts | 326° |
| 2026-05-04 18:27 | 44.88212 | 17.28285 | 30312 ft | 433 kts | 326° |
| 2026-05-04 18:28 | 44.90724 | 17.25921 | 30559 ft | 434 kts | 326° |
| 2026-05-04 18:28 | 44.93238 | 17.23551 | 30800 ft | 436 kts | 326° |
| 2026-05-04 18:28 | 44.95765 | 17.21168 | 31037 ft | 437 kts | 326° |
| 2026-05-04 18:28 | 44.98292 | 17.18786 | 31273 ft | 438 kts | 326° |
| 2026-05-04 18:29 | 45.00820 | 17.16391 | 31588 ft | 437 kts | 326° |
| 2026-05-04 18:29 | 45.03342 | 17.14000 | 31909 ft | 436 kts | 326° |
| 2026-05-04 18:29 | 45.05856 | 17.11614 | 32221 ft | 435 kts | 326° |
| 2026-05-04 18:29 | 45.08369 | 17.09229 | 32535 ft | 434 kts | 326° |
| 2026-05-04 18:30 | 45.13370 | 17.04466 | 33166 ft | 432 kts | 326° |
| 2026-05-04 18:30 | 45.15861 | 17.02085 | 33474 ft | 432 kts | 326° |
| 2026-05-04 18:30 | 45.18346 | 16.99707 | 33791 ft | 431 kts | 326° |
| 2026-05-04 18:31 | 45.20827 | 16.97335 | 34100 ft | 430 kts | 326° |
| 2026-05-04 18:31 | 45.23305 | 16.94965 | 34371 ft | 429 kts | 325° |
| 2026-05-04 18:31 | 45.25776 | 16.92600 | 34638 ft | 428 kts | 325° |
| 2026-05-04 18:31 | 45.28250 | 16.90231 | 34884 ft | 428 kts | 325° |
| 2026-05-04 18:32 | 45.30715 | 16.87867 | 35115 ft | 428 kts | 325° |
| 2026-05-04 18:32 | 45.33182 | 16.85497 | 35341 ft | 428 kts | 325° |
| 2026-05-04 18:32 | 45.35647 | 16.83130 | 35575 ft | 428 kts | 325° |
| 2026-05-04 18:32 | 45.38110 | 16.80764 | 35789 ft | 427 kts | 325° |
| 2026-05-04 18:33 | 45.40573 | 16.78389 | 35973 ft | 427 kts | 325° |
| 2026-05-04 18:33 | 45.45479 | 16.73654 | 36025 ft | 425 kts | 325° |
| 2026-05-04 18:34 | 45.50368 | 16.68932 | 36020 ft | 424 kts | 325° |
| 2026-05-04 18:34 | 45.55250 | 16.64200 | 36017 ft | 424 kts | 325° |
| 2026-05-04 18:35 | 45.60131 | 16.59462 | 36020 ft | 425 kts | 324° |
| 2026-05-04 18:35 | 45.65015 | 16.54713 | 36020 ft | 425 kts | 324° |
| 2026-05-04 18:36 | 45.69901 | 16.49957 | 36019 ft | 425 kts | 324° |
| 2026-05-04 18:36 | 45.74781 | 16.45193 | 36018 ft | 425 kts | 324° |
| 2026-05-04 18:37 | 45.79661 | 16.40403 | 36019 ft | 425 kts | 324° |
| 2026-05-04 18:37 | 45.84534 | 16.35610 | 36021 ft | 425 kts | 324° |
| 2026-05-04 18:38 | 45.89750 | 16.31634 | 36016 ft | 427 kts | 341° |
| 2026-05-04 18:38 | 45.95618 | 16.30251 | 36008 ft | 430 kts | 355° |
| 2026-05-04 18:39 | 46.01606 | 16.29861 | 35999 ft | 431 kts | 355° |
| 2026-05-04 18:39 | 46.07600 | 16.29457 | 35998 ft | 431 kts | 355° |
| 2026-05-04 18:40 | 46.13603 | 16.29049 | 35996 ft | 432 kts | 355° |
| 2026-05-04 18:40 | 46.16588 | 16.28637 | 35715 ft | 430 kts | 351° |
| 2026-05-04 18:40 | 46.19554 | 16.28093 | 34979 ft | 431 kts | 350° |
| 2026-05-04 18:40 | 46.22530 | 16.27476 | 34242 ft | 432 kts | 350° |
| 2026-05-04 18:41 | 46.25506 | 16.26825 | 33484 ft | 433 kts | 350° |
| 2026-05-04 18:41 | 46.28469 | 16.26176 | 32892 ft | 429 kts | 350° |
| 2026-05-04 18:41 | 46.31410 | 16.25547 | 32300 ft | 425 kts | 350° |
| 2026-05-04 18:41 | 46.34324 | 16.24942 | 31728 ft | 422 kts | 351° |
| 2026-05-04 18:42 | 46.37225 | 16.24352 | 31191 ft | 419 kts | 351° |
| 2026-05-04 18:42 | 46.40112 | 16.23771 | 30809 ft | 418 kts | 351° |
| 2026-05-04 18:42 | 46.42991 | 16.23189 | 30440 ft | 417 kts | 351° |
| 2026-05-04 18:42 | 46.45861 | 16.22604 | 30078 ft | 416 kts | 351° |
| 2026-05-04 18:43 | 46.48719 | 16.22018 | 29652 ft | 414 kts | 351° |
| 2026-05-04 18:43 | 46.51562 | 16.21432 | 29233 ft | 411 kts | 351° |
| 2026-05-04 18:43 | 46.54391 | 16.20848 | 28816 ft | 409 kts | 351° |
| 2026-05-04 18:43 | 46.57201 | 16.20268 | 28409 ft | 407 kts | 351° |
| 2026-05-04 18:44 | 46.59997 | 16.19691 | 28011 ft | 405 kts | 351° |
| 2026-05-04 18:44 | 46.60939 | 16.19496 | 27876 ft | 404 kts | 351° |
| 2026-05-04 18:44 | 46.65541 | 16.18549 | 27226 ft | 400 kts | 351° |
| 2026-05-04 18:44 | 46.68293 | 16.17983 | 26845 ft | 398 kts | 351° |
| 2026-05-04 18:45 | 46.71031 | 16.17419 | 26473 ft | 396 kts | 351° |
| 2026-05-04 18:45 | 46.73751 | 16.16857 | 26088 ft | 394 kts | 351° |
| 2026-05-04 18:45 | 46.76460 | 16.16296 | 25719 ft | 392 kts | 351° |
| 2026-05-04 18:45 | 46.79155 | 16.15734 | 25351 ft | 391 kts | 351° |
| 2026-05-04 18:46 | 46.80968 | 16.15356 | 25106 ft | 389 kts | 350° |
| 2026-05-04 18:46 | 46.83645 | 16.14798 | 24739 ft | 387 kts | 351° |
| 2026-05-04 18:46 | 46.86310 | 16.14245 | 24394 ft | 386 kts | 351° |
| 2026-05-04 18:46 | 46.88960 | 16.13698 | 24048 ft | 384 kts | 351° |
| 2026-05-04 18:47 | 46.91600 | 16.13150 | 23709 ft | 382 kts | 350° |
| 2026-05-04 18:47 | 46.94228 | 16.12599 | 23323 ft | 381 kts | 350° |
| 2026-05-04 18:47 | 46.96846 | 16.12048 | 22913 ft | 379 kts | 350° |
| 2026-05-04 18:47 | 46.99454 | 16.11502 | 22506 ft | 378 kts | 350° |
| 2026-05-04 18:48 | 47.02047 | 16.10960 | 22098 ft | 376 kts | 350° |
| 2026-05-04 18:48 | 47.04636 | 16.10420 | 21715 ft | 375 kts | 350° |
| 2026-05-04 18:48 | 47.07208 | 16.09883 | 21330 ft | 373 kts | 350° |
| 2026-05-04 18:48 | 47.09775 | 16.09355 | 20947 ft | 372 kts | 352° |
| 2026-05-04 18:49 | 47.12342 | 16.09453 | 20512 ft | 371 kts | 10° |
| 2026-05-04 18:49 | 47.14761 | 16.10715 | 20060 ft | 370 kts | 28° |
| 2026-05-04 18:49 | 47.17001 | 16.12576 | 19588 ft | 369 kts | 29° |
| 2026-05-04 18:49 | 47.19222 | 16.14451 | 19147 ft | 367 kts | 29° |
| 2026-05-04 18:50 | 47.21434 | 16.16324 | 18724 ft | 366 kts | 29° |
| 2026-05-04 18:50 | 47.23637 | 16.18187 | 18476 ft | 366 kts | 29° |
| 2026-05-04 18:50 | 47.25849 | 16.20052 | 18236 ft | 366 kts | 29° |
| 2026-05-04 18:50 | 47.28054 | 16.21909 | 18016 ft | 365 kts | 29° |
| 2026-05-04 18:51 | 47.30252 | 16.23766 | 17484 ft | 367 kts | 29° |
| 2026-05-04 18:51 | 47.32509 | 16.25674 | 16569 ft | 379 kts | 30° |
| 2026-05-04 18:51 | 47.34809 | 16.27616 | 15881 ft | 385 kts | 30° |
| 2026-05-04 18:51 | 47.37144 | 16.29587 | 15282 ft | 386 kts | 30° |
| 2026-05-04 18:52 | 47.39466 | 16.31555 | 14781 ft | 384 kts | 30° |
| 2026-05-04 18:52 | 47.41779 | 16.33517 | 14288 ft | 382 kts | 30° |
| 2026-05-04 18:52 | 47.44079 | 16.35467 | 13795 ft | 380 kts | 30° |
| 2026-05-04 18:52 | 47.46364 | 16.37404 | 13272 ft | 378 kts | 30° |
| 2026-05-04 18:53 | 47.48634 | 16.39330 | 12749 ft | 375 kts | 30° |
| 2026-05-04 18:53 | 47.50890 | 16.41246 | 12233 ft | 373 kts | 30° |
| 2026-05-04 18:53 | 47.53133 | 16.43152 | 11983 ft | 372 kts | 30° |
| 2026-05-04 18:53 | 47.55373 | 16.45060 | 11970 ft | 372 kts | 30° |
| 2026-05-04 18:54 | 47.57619 | 16.46978 | 11975 ft | 372 kts | 30° |
| 2026-05-04 18:54 | 47.59863 | 16.48901 | 11971 ft | 373 kts | 30° |
| 2026-05-04 18:54 | 47.62111 | 16.50828 | 11971 ft | 373 kts | 30° |
| 2026-05-04 18:54 | 47.64358 | 16.52749 | 11968 ft | 373 kts | 30° |
| 2026-05-04 18:55 | 47.66609 | 16.54673 | 11969 ft | 373 kts | 30° |
| 2026-05-04 18:55 | 47.71102 | 16.58511 | 11966 ft | 372 kts | 30° |
| 2026-05-04 18:55 | 47.73330 | 16.60414 | 11956 ft | 373 kts | 28° |
| 2026-05-04 18:56 | 47.75719 | 16.61847 | 11665 ft | 368 kts | 14° |
| 2026-05-04 18:56 | 47.78184 | 16.62796 | 11132 ft | 365 kts | 13° |
| 2026-05-04 18:56 | 47.80642 | 16.63710 | 10613 ft | 363 kts | 13° |
| 2026-05-04 18:56 | 47.83080 | 16.64600 | 10110 ft | 360 kts | 13° |
| 2026-05-04 18:57 | 47.85508 | 16.65483 | 9560 ft | 358 kts | 13° |
| 2026-05-04 18:57 | 47.87919 | 16.66362 | 9112 ft | 355 kts | 13° |
| 2026-05-04 18:57 | 47.90306 | 16.67238 | 8859 ft | 349 kts | 13° |
| 2026-05-04 18:57 | 47.92624 | 16.68096 | 8603 ft | 338 kts | 13° |
| 2026-05-04 18:58 | 47.94868 | 16.68930 | 8365 ft | 328 kts | 13° |
| 2026-05-04 18:58 | 47.97020 | 16.69732 | 8222 ft | 308 kts | 13° |
| 2026-05-04 18:58 | 47.99052 | 16.70491 | 7850 ft | 298 kts | 13° |
| 2026-05-04 18:58 | 48.01045 | 16.71231 | 7365 ft | 293 kts | 13° |
| 2026-05-04 18:59 | 48.02991 | 16.71955 | 7014 ft | 284 kts | 13° |
| 2026-05-04 18:59 | 48.04882 | 16.72661 | 6648 ft | 276 kts | 13° |
| 2026-05-04 18:59 | 48.06727 | 16.73351 | 6297 ft | 270 kts | 13° |
| 2026-05-04 18:59 | 48.08558 | 16.73843 | 5930 ft | 267 kts | 3° |
| 2026-05-04 19:00 | 48.10406 | 16.73891 | 5574 ft | 265 kts | 354° |
| 2026-05-04 19:00 | 48.12213 | 16.73520 | 5228 ft | 259 kts | 344° |
| 2026-05-04 19:00 | 48.13901 | 16.72777 | 4891 ft | 248 kts | 335° |
| 2026-05-04 19:00 | 48.15434 | 16.71723 | 4541 ft | 238 kts | 328° |
| 2026-05-04 19:01 | 48.16886 | 16.70597 | 4184 ft | 232 kts | 328° |
| 2026-05-04 19:01 | 48.18308 | 16.69496 | 3810 ft | 228 kts | 328° |
| 2026-05-04 19:01 | 48.19700 | 16.68419 | 3496 ft | 224 kts | 329° |
| 2026-05-04 19:01 | 48.21077 | 16.67356 | 3149 ft | 221 kts | 329° |
| 2026-05-04 19:02 | 48.22475 | 16.66414 | 2846 ft | 220 kts | 337° |
| 2026-05-04 19:02 | 48.23930 | 16.65740 | 2566 ft | 218 kts | 343° |
| 2026-05-04 19:02 | 48.25366 | 16.65062 | 2504 ft | 214 kts | 329° |
| 2026-05-04 19:02 | 48.26391 | 16.63570 | 2509 ft | 202 kts | 290° |
| 2026-05-04 19:03 | 48.26635 | 16.61593 | 2501 ft | 188 kts | 261° |
| 2026-05-04 19:03 | 48.26529 | 16.59651 | 2509 ft | 185 kts | 256° |
| 2026-05-04 19:03 | 48.26384 | 16.57710 | 2517 ft | 185 kts | 255° |
| 2026-05-04 19:03 | 48.26242 | 16.55802 | 2506 ft | 182 kts | 253° |
| 2026-05-04 19:04 | 48.25708 | 16.54222 | 2511 ft | 166 kts | 217° |
| 2026-05-04 19:04 | 48.24766 | 16.53327 | 2509 ft | 162 kts | 198° |
| 2026-05-04 19:04 | 48.23656 | 16.53018 | 2512 ft | 159 kts | 178° |
| 2026-05-04 19:04 | 48.22591 | 16.53312 | 2510 ft | 155 kts | 165° |
| 2026-05-04 19:05 | 48.21565 | 16.53749 | 2459 ft | 147 kts | 165° |
| 2026-05-04 19:05 | 48.20616 | 16.54152 | 2327 ft | 139 kts | 165° |
| 2026-05-04 19:05 | 48.19709 | 16.54538 | 2180 ft | 137 kts | 165° |
| 2026-05-04 19:05 | 48.18788 | 16.54928 | 2001 ft | 136 kts | 165° |
| 2026-05-04 19:06 | 48.17881 | 16.55313 | 1829 ft | 135 kts | 164° |
| 2026-05-04 19:06 | 48.16978 | 16.55696 | 1648 ft | 134 kts | 163° |
| 2026-05-04 19:06 | 48.16075 | 16.56079 | 1467 ft | 136 kts | 165° |
| 2026-05-04 19:06 | 48.15169 | 16.56463 | 1288 ft | 136 kts | 164° |
| 2026-05-04 19:07 | 48.14265 | 16.56848 | 1103 ft | 135 kts | 164° |
| 2026-05-04 19:07 | 48.13368 | 16.57226 | 932 ft | 133 kts | 163° |
| 2026-05-04 19:07 | 48.12480 | 16.57600 | 733 ft | 132 kts | 162° |
| 2026-05-04 19:07 | 48.11605 | 16.57975 | 618 ft | 124 kts | 162° |
| 2026-05-04 19:08 | 48.10897 | 16.58277 | 613 ft | 83 kts | 164° |
| 2026-05-04 19:08 | 48.10504 | 16.58440 | 612 ft | 38 kts | 165° |
| 2026-05-04 19:08 | 48.10289 | 16.58458 | 616 ft | 30 kts | 189° |
| 2026-05-04 19:08 | 48.10159 | 16.58407 | 609 ft | 12 kts | 206° |
| 2026-05-04 19:09 | 48.10151 | 16.58315 | 609 ft | 10 kts | 326° |
| 2026-05-04 19:09 | 48.10216 | 16.58283 | 611 ft | 9 kts | 344° |
| 2026-05-04 19:09 | 48.10274 | 16.58258 | 615 ft | 8 kts | 344° |
| 2026-05-04 19:09 | 48.10336 | 16.58232 | 617 ft | 11 kts | 344° |
| 2026-05-04 19:10 | 48.10425 | 16.58194 | 619 ft | 18 kts | 344° |
| 2026-05-04 19:10 | 48.10541 | 16.58146 | 619 ft | 16 kts | 344° |
| 2026-05-04 19:10 | 48.10646 | 16.58102 | 616 ft | 15 kts | 344° |
| 2026-05-04 19:10 | 48.10737 | 16.58063 | 614 ft | 16 kts | 344° |
| 2026-05-04 19:11 | 48.10857 | 16.58013 | 609 ft | 18 kts | 344° |
| 2026-05-04 19:11 | 48.10959 | 16.57930 | 609 ft | 16 kts | 316° |
| 2026-05-04 19:11 | 48.11037 | 16.57801 | 616 ft | 19 kts | 301° |
| 2026-05-04 19:11 | 48.11096 | 16.57621 | 611 ft | 19 kts | 296° |
| 2026-05-04 19:12 | 48.11153 | 16.57447 | 611 ft | 21 kts | 296° |
| 2026-05-04 19:12 | 48.11282 | 16.57051 | 612 ft | 18 kts | 296° |
| 2026-05-04 19:12 | 48.11334 | 16.56893 | 619 ft | 14 kts | 296° |
| 2026-05-04 19:13 | 48.11396 | 16.56827 | 615 ft | 11 kts | 9° |
| 2026-05-04 19:13 | 48.11478 | 16.56880 | 614 ft | 13 kts | 25° |
| 2026-05-04 19:13 | 48.11550 | 16.56950 | 614 ft | 11 kts | 62° |
| 2026-05-04 19:13 | 48.11531 | 16.57065 | 618 ft | 13 kts | 116° |
| 2026-05-04 19:14 | 48.11491 | 16.57188 | 614 ft | 12 kts | 116° |
| 2026-05-04 19:14 | 48.11456 | 16.57283 | 625 ft | 7 kts | 138° |
| 2026-05-04 19:14 | 48.11410 | 16.57265 | 618 ft | 6 kts | 206° |
| 2026-05-04 19:14 | 48.11389 | 16.57249 | 615 ft | 1 kts | 206° |
| 2026-05-04 19:15 | 48.11388 | 16.57249 | 614 ft | 0 kts | 206° |